Walsall, United Kingdom
Current Conditions -  °F | °C
As of 1:50 AM on Tuesday 21 Oct 2014 (Local Time) from EGBB Reporting Station
Overcast Overcast  
Wind Chill: 54°   Ceiling: 1000
Heat Index: 54°   Visibility: 5mi
Dew Point: 50°   Wind: 14mph
Humidity: 88%   Direction: 200°SSW
Pressure: 29.65"   Gusts: NA
Location:  52.59°N, 1.98°W
Report Text: EGBB 210050Z AUTO 20012KT 160V230 8000 BKN010/// OVC019/// 12/10 Q1004
Loading
Personal Weather Stations






























Interactive Weather Map New forecast layout! Learn more

10-Day Weather Forecast

Advertisements
Track Severe Weather on mobile